Texas Valley, New York
Current Conditions -  °F | °C
As of 7:15 AM on Tuesday 27 Jan 2015 (Local Time) from KN03 Reporting Station
Broken Clouds Broken Clouds  
Wind Chill: 16°   Ceiling: 10000
Heat Index: 16°   Visibility: 10mi
Dew Point: 10°   Wind: 0mph
Humidity: 79%   Direction: NA
Pressure: 29.83"   Gusts: NA
Location:  42.4596°N, 76.0658°W
Report Text: KN03 271215Z AUTO 00000KT 10SM BKN100 BKN120 M09/M12 A2983 RMK AO2
Loading
Personal Weather Stations






























Interactive Weather Map New forecast layout! Learn more

10-Day Weather Forecast

Advertisements
Track Severe Weather on mobile